首页
METAR-TAF:

METAR-TAF

机场 :

石油平台

Sleipner, 挪威

纬度: 58-22-00N, 经度: 001-54-25E, 海拔: 50米

当前天气观测

该预报发布于36分钟前的23:50 UTC
风速44节,风向东南
温度 7°C
湿度 93%
气压 968 hPa
能見度: 3700
小雨

METAR: ENSL 132350Z AUTO 13044KT 3700NDV -RA BKN012/// 07/06 Q0968 W05/S6

时间: 01:26 (00:26 UTC)


TAF: 丢失

超过4000个机场的气象观测和天气预报(METAR&TAF报告)。

可查询的气象台以黄色和红色小点在地图上表示。

将鼠标移到小点上方,可查看气象台名称。

然后点击查看天气观测和预报。

如需切换地图:点击带黑十字的绿色按钮放大地图;点击带横线的绿色按钮缩小地图;或者点击绿色箭头查看邻近地区的地图。


METAR-TAF: